createdAt,value
2023-03-26T00:02:40.005Z,74.30
2023-03-26T00:05:46.610Z,74.55
2023-03-26T00:08:51.916Z,74.54
2023-03-26T00:11:56.847Z,74.51
2023-03-26T00:15:00.875Z,74.09
2023-03-26T00:18:05.813Z,74.18
2023-03-26T00:21:14.430Z,74.27
2023-03-26T00:24:18.346Z,74.12
2023-03-26T00:27:22.990Z,74.22
2023-03-26T00:30:27.958Z,74.00
2023-03-26T00:33:33.032Z,73.98
2023-03-26T00:36:37.357Z,73.74
2023-03-26T00:39:42.828Z,73.75
2023-03-26T00:42:46.928Z,74.14
2023-03-26T00:45:54.567Z,74.13
2023-03-26T00:49:00.105Z,74.05
2023-03-26T00:52:04.706Z,74.01
2023-03-26T00:55:09.407Z,73.93
2023-03-26T00:58:14.564Z,73.77
2023-03-26T01:01:29.400Z,73.85
2023-03-26T01:04:35.131Z,74.14
2023-03-26T01:07:39.753Z,73.92
2023-03-26T01:10:51.151Z,73.97
2023-03-26T01:14:29.263Z,74.27
2023-03-26T01:17:38.084Z,73.94
2023-03-26T01:20:46.867Z,73.84
2023-03-26T01:23:57.812Z,73.93
2023-03-26T01:27:18.362Z,74.01
2023-03-26T01:30:26.002Z,73.78
2023-03-26T01:33:57.556Z,73.69
2023-03-26T01:37:13.461Z,74.10
2023-03-26T01:40:43.713Z,74.09
2023-03-26T01:43:59.050Z,73.95
2023-03-26T01:47:04.375Z,73.75
2023-03-26T01:50:09.275Z,73.88
2023-03-26T01:53:14.689Z,73.99
2023-03-26T01:56:38.100Z,73.78
2023-03-26T02:00:01.947Z,73.96
2023-03-26T02:03:18.299Z,73.98
2023-03-26T02:06:34.476Z,73.82
2023-03-26T02:09:47.098Z,73.81
2023-03-26T02:12:52.217Z,73.97
2023-03-26T02:16:02.020Z,73.97
2023-03-26T02:19:10.094Z,73.66
2023-03-26T02:22:17.058Z,73.64
2023-03-26T02:25:23.077Z,73.61
2023-03-26T02:28:27.217Z,73.84
2023-03-26T02:31:31.262Z,73.86
2023-03-26T02:34:36.926Z,73.69
2023-03-26T02:37:42.327Z,73.72
2023-03-26T02:40:51.388Z,73.87
2023-03-26T02:43:56.103Z,74.11
2023-03-26T02:47:02.243Z,74.17
2023-03-26T02:50:27.048Z,74.03
2023-03-26T02:53:53.841Z,74.02
2023-03-26T02:57:13.767Z,74.02
2023-03-26T03:00:39.161Z,74.07
2023-03-26T03:04:04.474Z,73.93
2023-03-26T03:07:18.102Z,73.82
2023-03-26T03:10:23.131Z,73.59
2023-03-26T03:13:40.768Z,73.44
2023-03-26T03:16:44.912Z,74.31
2023-03-26T03:19:49.322Z,74.41
2023-03-26T03:22:53.628Z,74.50
2023-03-26T03:25:58.756Z,74.42
2023-03-26T03:29:02.758Z,74.30
2023-03-26T03:32:06.956Z,74.67
2023-03-26T03:35:15.470Z,74.90
2023-03-26T03:38:20.903Z,74.77
2023-03-26T03:41:26.552Z,74.77
2023-03-26T03:44:30.758Z,74.92
2023-03-26T03:47:35.478Z,74.90
2023-03-26T03:50:40.673Z,74.60
2023-03-26T03:54:08.619Z,74.76
2023-03-26T03:57:33.437Z,74.40
2023-03-26T04:00:41.739Z,74.45
2023-03-26T04:04:09.254Z,74.68
2023-03-26T04:07:21.742Z,74.40
2023-03-26T04:10:44.970Z,74.51
2023-03-26T04:13:49.254Z,75.03
2023-03-26T04:17:14.095Z,74.71
2023-03-26T04:20:19.466Z,74.76
2023-03-26T04:23:24.486Z,74.56
2023-03-26T04:26:33.848Z,74.81
2023-03-26T04:29:49.911Z,74.79
2023-03-26T04:32:58.771Z,74.72
2023-03-26T04:36:05.458Z,74.88
2023-03-26T04:39:13.381Z,74.94
2023-03-26T04:42:41.758Z,74.60
2023-03-26T04:45:54.624Z,74.70
2023-03-26T04:49:00.218Z,74.58
2023-03-26T04:52:04.526Z,74.13
2023-03-26T04:55:39.686Z,74.48
2023-03-26T04:58:51.894Z,74.43
2023-03-26T05:01:58.161Z,74.48
2023-03-26T05:05:02.881Z,74.18
2023-03-26T05:08:07.737Z,74.06
2023-03-26T05:11:11.802Z,74.11
2023-03-26T05:14:16.762Z,74.30
2023-03-26T05:17:22.743Z,73.94
2023-03-26T05:20:30.248Z,73.93
2023-03-26T05:23:34.468Z,74.16
2023-03-26T05:26:58.348Z,73.86
2023-03-26T05:30:03.797Z,73.86
2023-03-26T05:33:10.565Z,73.54
2023-03-26T05:36:24.213Z,73.63
2023-03-26T05:39:39.100Z,73.16
2023-03-26T05:43:01.740Z,73.37
2023-03-26T05:46:12.849Z,73.00
2023-03-26T05:49:16.828Z,73.22
2023-03-26T05:52:20.966Z,73.13
2023-03-26T05:55:58.455Z,72.97
2023-03-26T05:59:28.693Z,72.87
2023-03-26T06:03:12.711Z,72.98
2023-03-26T06:06:20.952Z,73.01
2023-03-26T06:09:32.958Z,72.61
2023-03-26T06:12:37.086Z,72.38
2023-03-26T06:15:42.318Z,72.53
2023-03-26T06:19:07.166Z,72.85
2023-03-26T06:22:31.563Z,73.17
2023-03-26T06:25:57.336Z,73.31
2023-03-26T06:29:24.291Z,73.50
2023-03-26T06:32:34.581Z,73.87
2023-03-26T06:35:46.175Z,74.40
2023-03-26T06:38:51.913Z,74.34
2023-03-26T06:41:56.160Z,74.39
2023-03-26T06:45:33.716Z,74.89
2023-03-26T06:48:56.413Z,74.94
2023-03-26T06:52:02.258Z,75.10
2023-03-26T06:55:21.528Z,74.79
2023-03-26T06:58:52.105Z,75.01
2023-03-26T07:02:14.697Z,75.05
2023-03-26T07:05:38.645Z,75.29
2023-03-26T07:09:12.057Z,75.43
2023-03-26T07:12:34.549Z,76.12
2023-03-26T07:15:56.564Z,75.75
2023-03-26T07:19:19.450Z,75.48
2023-03-26T07:22:25.186Z,75.61
2023-03-26T07:25:44.545Z,75.65
2023-03-26T07:29:04.512Z,75.64
2023-03-26T07:32:32.560Z,76.32
2023-03-26T07:35:51.662Z,76.57
2023-03-26T07:39:06.079Z,75.33
2023-03-26T07:42:16.451Z,75.19
2023-03-26T07:45:42.185Z,74.53
2023-03-26T07:49:15.128Z,73.95
2023-03-26T07:52:33.987Z,73.64
2023-03-26T07:56:18.036Z,72.87
2023-03-26T07:59:47.593Z,73.36
2023-03-26T08:03:19.750Z,73.32
2023-03-26T08:06:53.182Z,72.93
2023-03-26T08:10:35.603Z,72.54
2023-03-26T08:13:57.222Z,72.71
2023-03-26T08:17:07.691Z,73.13
2023-03-26T08:20:11.924Z,73.18
2023-03-26T08:23:50.474Z,73.44
2023-03-26T08:27:21.578Z,72.66
2023-03-26T08:30:27.423Z,72.54
2023-03-26T08:33:32.687Z,72.40
2023-03-26T08:36:37.001Z,72.75
2023-03-26T08:39:42.316Z,71.86
2023-03-26T08:43:21.189Z,71.61
2023-03-26T08:46:47.327Z,70.71
2023-03-26T08:50:21.749Z,70.39
2023-03-26T08:53:38.058Z,69.22
2023-03-26T08:56:53.371Z,68.94
2023-03-26T09:00:05.958Z,68.15
2023-03-26T09:03:47.393Z,68.42
2023-03-26T09:07:15.686Z,67.55
2023-03-26T09:10:51.092Z,65.46
2023-03-26T09:14:23.060Z,66.19
2023-03-26T09:17:29.970Z,66.57
2023-03-26T09:20:55.261Z,66.35
2023-03-26T09:24:35.620Z,65.49
2023-03-26T09:27:39.536Z,65.13
2023-03-26T09:31:14.702Z,64.91
2023-03-26T09:34:34.877Z,64.16
2023-03-26T09:37:59.142Z,63.94
2023-03-26T09:41:16.179Z,63.59
2023-03-26T09:44:46.120Z,63.36
2023-03-26T09:48:05.696Z,63.65
2023-03-26T09:51:31.111Z,63.42
2023-03-26T09:54:44.657Z,63.68
2023-03-26T09:58:19.704Z,63.22
2023-03-26T10:01:49.513Z,63.49
2023-03-26T10:05:17.773Z,62.36
2023-03-26T10:08:37.074Z,62.73
2023-03-26T10:12:02.805Z,62.45
2023-03-26T10:15:31.168Z,62.62
2023-03-26T10:18:54.245Z,63.75
2023-03-26T10:22:09.450Z,62.95
2023-03-26T10:25:38.120Z,63.88
2023-03-26T10:28:54.524Z,63.28
2023-03-26T10:32:06.216Z,63.30
2023-03-26T10:35:37.316Z,63.35
2023-03-26T10:39:02.818Z,62.31
2023-03-26T10:42:22.361Z,62.55
2023-03-26T10:45:49.595Z,62.83
2023-03-26T10:49:01.068Z,63.52
2023-03-26T10:52:12.047Z,62.75
2023-03-26T10:55:45.808Z,61.90
2023-03-26T10:58:50.361Z,61.44
2023-03-26T11:02:19.501Z,59.61
2023-03-26T11:06:11.578Z,56.24
2023-03-26T11:09:39.976Z,57.23
2023-03-26T11:12:48.799Z,56.53
2023-03-26T11:16:15.592Z,56.40
2023-03-26T11:19:38.934Z,57.63
2023-03-26T11:23:00.568Z,56.78
2023-03-26T11:26:17.998Z,57.62
2023-03-26T11:29:35.625Z,58.00
2023-03-26T11:33:08.316Z,57.54
2023-03-26T11:36:16.704Z,57.11
2023-03-26T11:39:28.221Z,57.31
2023-03-26T11:42:32.969Z,56.96
2023-03-26T11:45:42.221Z,57.55
2023-03-26T11:48:50.705Z,58.47
2023-03-26T11:51:54.681Z,56.80
2023-03-26T11:54:59.463Z,55.82
2023-03-26T11:58:06.249Z,54.86
2023-03-26T12:01:16.004Z,53.77
2023-03-26T12:04:28.676Z,53.98
2023-03-26T12:07:35.124Z,54.49
2023-03-26T12:10:43.017Z,54.59
2023-03-26T12:13:56.279Z,54.60
2023-03-26T12:17:12.058Z,54.34
2023-03-26T12:20:33.412Z,54.92
2023-03-26T12:23:45.644Z,55.61
2023-03-26T12:26:58.557Z,54.75
2023-03-26T12:30:23.468Z,54.75
2023-03-26T12:33:34.196Z,54.38
2023-03-26T12:36:39.329Z,54.16
2023-03-26T12:40:09.886Z,54.28
2023-03-26T12:44:53.578Z,54.78
2023-03-26T12:47:55.363Z,54.20
2023-03-26T12:50:41.563Z,52.52
2023-03-26T12:53:48.520Z,50.91
2023-03-26T12:57:11.938Z,50.05
2023-03-26T13:00:29.009Z,50.03
2023-03-26T13:03:51.814Z,49.67
2023-03-26T13:07:15.960Z,50.50
2023-03-26T13:11:06.147Z,54.79
2023-03-26T13:14:35.571Z,57.21
2023-03-26T13:17:45.328Z,58.41
2023-03-26T13:21:18.325Z,58.98
2023-03-26T13:24:25.293Z,60.36
2023-03-26T13:27:32.291Z,60.96
2023-03-26T13:31:08.604Z,61.01
2023-03-26T13:34:36.316Z,60.78
2023-03-26T13:38:06.163Z,60.66
2023-03-26T13:41:30.148Z,60.72
2023-03-26T13:45:11.019Z,61.40
2023-03-26T13:48:22.105Z,60.09
2023-03-26T13:51:33.577Z,60.35
2023-03-26T13:54:49.343Z,58.70
2023-03-26T13:58:12.220Z,57.31
2023-03-26T14:01:22.633Z,56.07
2023-03-26T14:04:35.341Z,55.34
2023-03-26T14:08:01.624Z,54.97
2023-03-26T14:11:13.156Z,54.91
2023-03-26T14:14:44.211Z,54.22
2023-03-26T14:17:55.593Z,54.57
2023-03-26T14:21:21.945Z,55.12
2023-03-26T14:25:03.815Z,54.51
2023-03-26T14:28:26.589Z,54.32
2023-03-26T14:31:39.557Z,54.64
2023-03-26T14:35:04.941Z,53.85
2023-03-26T14:38:24.131Z,54.61
2023-03-26T14:41:50.552Z,54.85
2023-03-26T14:45:22.645Z,55.23
2023-03-26T14:48:43.832Z,55.31
2023-03-26T14:51:58.214Z,55.08
2023-03-26T14:55:13.524Z,52.51
2023-03-26T14:58:42.995Z,52.61
2023-03-26T15:02:22.386Z,52.92
2023-03-26T15:05:48.800Z,52.26
2023-03-26T15:09:36.317Z,51.89
2023-03-26T15:13:05.422Z,50.55
2023-03-26T15:16:09.387Z,50.89
2023-03-26T15:19:51.521Z,50.63
2023-03-26T15:23:13.584Z,51.26
2023-03-26T15:26:37.268Z,50.42
2023-03-26T15:29:56.609Z,50.42
2023-03-26T15:33:38.540Z,50.37
2023-03-26T15:37:12.669Z,50.42
2023-03-26T15:40:22.717Z,50.60
2023-03-26T15:44:22.803Z,50.28
2023-03-26T15:47:38.151Z,49.43
2023-03-26T15:51:20.040Z,50.26
2023-03-26T15:54:32.556Z,50.94
2023-03-26T15:58:27.566Z,51.07
2023-03-26T16:01:37.548Z,51.40
2023-03-26T16:04:57.481Z,51.82
2023-03-26T16:08:19.438Z,52.22
2023-03-26T16:11:43.711Z,53.08
2023-03-26T16:15:14.372Z,53.46
2023-03-26T16:18:25.389Z,53.31
2023-03-26T16:21:34.402Z,54.43
2023-03-26T16:24:46.589Z,54.08
2023-03-26T16:28:08.736Z,54.48
2023-03-26T16:31:37.653Z,54.94
2023-03-26T16:35:02.165Z,55.10
2023-03-26T16:38:13.621Z,55.83
2023-03-26T16:41:29.413Z,55.94
2023-03-26T16:44:51.960Z,56.02
2023-03-26T16:48:04.953Z,55.68
2023-03-26T16:51:30.713Z,56.30
2023-03-26T16:55:04.222Z,56.23
2023-03-26T16:58:36.836Z,56.04
2023-03-26T17:01:48.205Z,56.04
2023-03-26T17:05:01.517Z,56.10
2023-03-26T17:08:35.487Z,56.62
2023-03-26T17:12:07.907Z,56.40
2023-03-26T17:15:41.333Z,56.81
2023-03-26T17:18:50.884Z,56.91
2023-03-26T17:25:25.102Z,57.41
2023-03-26T17:29:10.762Z,57.81
2023-03-26T17:32:15.239Z,57.78
2023-03-26T17:35:40.694Z,57.90
2023-03-26T17:38:47.774Z,58.22
2023-03-26T17:41:55.748Z,58.34
2023-03-26T17:45:09.298Z,59.01
2023-03-26T17:48:20.696Z,59.26
2023-03-26T17:51:40.298Z,60.07
2023-03-26T17:54:48.076Z,60.58
2023-03-26T17:57:57.216Z,61.31
2023-03-26T18:01:29.031Z,61.88
2023-03-26T18:04:37.936Z,62.39
2023-03-26T18:08:23.842Z,62.12
2023-03-26T18:11:36.639Z,62.37
2023-03-26T18:15:11.875Z,62.57
2023-03-26T18:18:25.927Z,63.02
2023-03-26T18:21:37.162Z,62.98
2023-03-26T18:24:42.355Z,63.18
2023-03-26T18:27:46.987Z,64.11
2023-03-26T18:30:51.931Z,64.84
2023-03-26T18:33:59.347Z,65.00
2023-03-26T18:37:24.096Z,64.89
2023-03-26T18:40:34.143Z,64.82
2023-03-26T18:43:43.912Z,65.36
2023-03-26T18:46:48.649Z,65.60
2023-03-26T18:49:56.744Z,65.73
2023-03-26T18:53:00.790Z,65.65
2023-03-26T18:56:19.515Z,66.14
2023-03-26T18:59:32.715Z,66.22
2023-03-26T19:02:38.568Z,66.22
2023-03-26T19:05:43.373Z,66.39
2023-03-26T19:08:47.913Z,66.65
2023-03-26T19:11:57.192Z,67.09
2023-03-26T19:15:13.614Z,67.48
2023-03-26T19:18:25.136Z,67.19
2023-03-26T19:21:29.360Z,67.68
2023-03-26T19:24:34.413Z,67.77
2023-03-26T19:27:38.544Z,67.89
2023-03-26T19:30:43.860Z,68.08
2023-03-26T19:33:58.940Z,68.47
2023-03-26T19:37:16.251Z,68.21
2023-03-26T19:40:25.347Z,68.26
2023-03-26T19:43:29.288Z,68.45
2023-03-26T19:46:53.754Z,68.16
2023-03-26T19:50:07.561Z,68.09
2023-03-26T19:53:16.097Z,68.00
2023-03-26T19:56:22.195Z,68.11
2023-03-26T19:59:26.250Z,67.96
2023-03-26T20:02:30.461Z,67.95
2023-03-26T20:05:35.733Z,68.24
2023-03-26T20:08:40.700Z,68.57
2023-03-26T20:11:46.733Z,68.46
2023-03-26T20:14:50.787Z,68.22
2023-03-26T20:17:55.562Z,68.50
2023-03-26T20:20:59.704Z,68.89
2023-03-26T20:24:12.075Z,68.79
2023-03-26T20:27:16.331Z,68.92
2023-03-26T20:30:36.413Z,68.98
2023-03-26T20:33:42.383Z,69.28
2023-03-26T20:36:47.116Z,69.27
2023-03-26T20:39:51.065Z,69.15
2023-03-26T20:42:55.041Z,69.48
2023-03-26T20:45:59.057Z,69.55
2023-03-26T20:49:03.075Z,69.52
2023-03-26T20:52:07.095Z,69.74
2023-03-26T20:55:15.817Z,69.84
2023-03-26T20:58:31.438Z,70.12
2023-03-26T21:01:37.897Z,70.20
2023-03-26T21:04:42.083Z,70.41
2023-03-26T21:07:46.520Z,70.34
2023-03-26T21:10:50.902Z,70.41
2023-03-26T21:14:15.236Z,70.59
2023-03-26T21:17:22.222Z,70.84
2023-03-26T21:20:32.696Z,70.86
2023-03-26T21:23:40.903Z,71.09
2023-03-26T21:26:57.193Z,71.27
2023-03-26T21:30:02.375Z,71.35
2023-03-26T21:33:06.461Z,71.64
2023-03-26T21:36:12.084Z,71.87
2023-03-26T21:39:16.775Z,71.65
2023-03-26T21:42:21.666Z,71.84
2023-03-26T21:45:26.718Z,71.90
2023-03-26T21:48:31.225Z,71.97
2023-03-26T21:51:36.006Z,72.09
2023-03-26T21:54:41.845Z,72.17
2023-03-26T21:58:16.688Z,72.09
2023-03-26T22:01:33.287Z,72.10
2023-03-26T22:04:54.169Z,71.98
2023-03-26T22:08:03.670Z,72.00
2023-03-26T22:11:10.214Z,71.99
2023-03-26T22:14:14.340Z,71.86
2023-03-26T22:17:19.009Z,71.78
2023-03-26T22:20:25.213Z,71.71
2023-03-26T22:23:36.335Z,71.77
2023-03-26T22:26:40.852Z,71.86
2023-03-26T22:29:45.598Z,71.89
2023-03-26T22:32:50.334Z,71.94
2023-03-26T22:35:56.102Z,71.86
2023-03-26T22:39:00.194Z,72.02
2023-03-26T22:42:05.065Z,72.05
2023-03-26T22:45:10.831Z,72.18
2023-03-26T22:48:16.446Z,72.33
2023-03-26T22:51:20.674Z,72.27
2023-03-26T22:54:24.579Z,72.23
2023-03-26T22:57:29.100Z,72.43
2023-03-26T23:00:33.120Z,72.48
2023-03-26T23:03:39.444Z,72.58
2023-03-26T23:06:43.715Z,72.72
2023-03-26T23:09:47.728Z,72.68
2023-03-26T23:12:52.516Z,72.77
2023-03-26T23:15:57.250Z,72.88
2023-03-26T23:19:01.371Z,72.92
2023-03-26T23:22:05.946Z,73.05
2023-03-26T23:25:10.419Z,73.04
2023-03-26T23:28:14.693Z,72.99
2023-03-26T23:31:18.920Z,72.87
2023-03-26T23:34:23.448Z,72.91
2023-03-26T23:37:29.614Z,72.89
2023-03-26T23:40:33.623Z,72.68
2023-03-26T23:43:40.079Z,72.49
2023-03-26T23:47:00.492Z,72.54
2023-03-26T23:50:05.638Z,72.64
2023-03-26T23:53:09.737Z,72.79
2023-03-26T23:56:13.771Z,72.81
2023-03-26T23:59:17.979Z,72.93
